Time;durP1;ratioP1;P1;durP2;ratioP2;P2;SDS_P1;SDS_P2;PMS_P1;PMS_P2;Temp;Humidity;BMP_temperature;BMP_pressure;BME280_temperature;BME280_humidity;BME280_pressure;Samples;Min_cycle;Max_cycle;Signal;HPM_P1;HPM_P2
2024/01/18 00:00:03;;;;;;;29.63;13.88;;;;;;;;;;4993725;28;20034;-57
2024/01/18 00:02:28;;;;;;;30.05;13.73;;;;;;;;;;4992914;28;20442;-57
2024/01/18 00:04:53;;;;;;;29.35;12.30;;;;;;;;;;4993807;28;20029;-56
2024/01/18 00:07:19;;;;;;;29.23;12.37;;;;;;;;;;4993768;28;20122;-58
2024/01/18 00:09:44;;;;;;;35.00;13.15;;;;;;;;;;4989801;28;20030;-58
2024/01/18 00:12:10;;;;;;;35.42;14.57;;;;;;;;;;4992654;28;20081;-57
2024/01/18 00:14:35;;;;;;;40.22;15.80;;;;;;;;;;4991571;28;20076;-56
2024/01/18 00:17:00;;;;;;;44.63;17.30;;;;;;;;;;4993434;28;20097;-57
2024/01/18 00:19:25;;;;;;;37.67;15.97;;;;;;;;;;4993539;28;20038;-57
2024/01/18 00:21:50;;;;;;;42.03;15.40;;;;;;;;;;4992796;28;20034;-56
2024/01/18 00:24:16;;;;;;;34.65;14.02;;;;;;;;;;4994663;28;20087;-57
2024/01/18 00:26:41;;;;;;;34.37;15.00;;;;;;;;;;4978463;28;20523;-58
2024/01/18 00:29:06;;;;;;;32.90;13.77;;;;;;;;;;4986177;28;20114;-57
2024/01/18 00:31:31;;;;;;;36.38;14.82;;;;;;;;;;4998629;28;20030;-57
2024/01/18 00:33:59;;;;;;;42.67;16.13;;;;;;;;;;4996049;28;20110;-57
2024/01/18 00:36:24;;;;;;;39.03;14.88;;;;;;;;;;4994100;28;20026;-58
2024/01/18 00:38:50;;;;;;;48.25;18.45;;;;;;;;;;4992149;28;20406;-57
2024/01/18 00:41:15;;;;;;;42.65;16.13;;;;;;;;;;4992249;28;20498;-57
2024/01/18 00:43:40;;;;;;;44.92;17.23;;;;;;;;;;4992532;28;20038;-57
2024/01/18 00:46:06;;;;;;;42.45;16.85;;;;;;;;;;4992773;28;20025;-58
2024/01/18 00:48:31;;;;;;;39.05;15.90;;;;;;;;;;4992354;28;20057;-56
2024/01/18 00:50:56;;;;;;;45.17;18.23;;;;;;;;;;4992161;28;20548;-56
2024/01/18 00:53:21;;;;;;;37.00;16.20;;;;;;;;;;4989359;28;20057;-57
2024/01/18 00:55:46;;;;;;;53.38;18.80;;;;;;;;;;4992972;28;20034;-58
2024/01/18 00:58:13;;;;;;;44.10;18.45;;;;;;;;;;4990805;28;20037;-59
2024/01/18 01:00:38;;;;;;;47.97;18.25;;;;;;;;;;4991941;28;20053;-58
2024/01/18 01:03:03;;;;;;;54.63;19.38;;;;;;;;;;4992050;28;20022;-58
2024/01/18 01:05:28;;;;;;;41.20;16.97;;;;;;;;;;4990016;28;20026;-57
2024/01/18 01:07:54;;;;;;;53.47;20.40;;;;;;;;;;4987250;28;20442;-57
2024/01/18 01:10:20;;;;;;;64.15;20.92;;;;;;;;;;4972970;28;20086;-58
2024/01/18 01:12:45;;;;;;;50.17;19.23;;;;;;;;;;4977117;28;20101;-57
2024/01/18 01:15:10;;;;;;;53.47;19.83;;;;;;;;;;4996844;28;20041;-58
2024/01/18 01:17:35;;;;;;;50.93;19.07;;;;;;;;;;4996073;28;20084;-59
2024/01/18 01:20:01;;;;;;;56.45;22.10;;;;;;;;;;4989933;28;20402;-57
2024/01/18 01:22:26;;;;;;;51.13;19.38;;;;;;;;;;4992524;28;20475;-57
2024/01/18 01:24:51;;;;;;;59.22;20.70;;;;;;;;;;4988177;28;20029;-59
2024/01/18 01:27:17;;;;;;;56.20;20.10;;;;;;;;;;4997218;28;20023;-58
2024/01/18 01:29:42;;;;;;;55.80;20.15;;;;;;;;;;4994495;28;20030;-58
2024/01/18 01:32:08;;;;;;;59.13;20.63;;;;;;;;;;4991972;28;20043;-59
2024/01/18 01:34:34;;;;;;;50.83;19.37;;;;;;;;;;4986860;28;20483;-58
2024/01/18 01:36:59;;;;;;;45.92;18.52;;;;;;;;;;4987146;28;20022;-56
2024/01/18 01:39:24;;;;;;;64.33;22.10;;;;;;;;;;4991911;28;20426;-57
2024/01/18 01:41:49;;;;;;;56.20;19.60;;;;;;;;;;4991807;28;20034;-57
2024/01/18 01:44:14;;;;;;;47.78;17.70;;;;;;;;;;4989762;28;20014;-57
2024/01/18 01:46:39;;;;;;;59.38;19.80;;;;;;;;;;4991517;28;20454;-56
2024/01/18 01:49:05;;;;;;;71.63;22.20;;;;;;;;;;4984741;28;20050;-57
2024/01/18 01:51:34;;;;;;;59.38;20.45;;;;;;;;;;4989366;28;20018;-58
2024/01/18 01:53:59;;;;;;;56.47;19.50;;;;;;;;;;4992312;28;20033;-58
2024/01/18 01:56:24;;;;;;;66.20;19.97;;;;;;;;;;4992034;28;20050;-58
2024/01/18 01:58:50;;;;;;;58.75;21.92;;;;;;;;;;4992062;28;20372;-57
2024/01/18 02:01:15;;;;;;;54.70;19.95;;;;;;;;;;4991265;28;20034;-57
2024/01/18 02:03:40;;;;;;;44.20;17.85;;;;;;;;;;4990836;28;20031;-57
2024/01/18 02:06:06;;;;;;;64.32;21.17;;;;;;;;;;4992608;28;20057;-57
2024/01/18 02:08:31;;;;;;;53.00;19.00;;;;;;;;;;4991577;28;20085;-58
2024/01/18 02:10:56;;;;;;;70.28;21.50;;;;;;;;;;4985066;28;20082;-58
2024/01/18 02:13:22;;;;;;;58.08;20.38;;;;;;;;;;4986092;28;20131;-57
2024/01/18 02:15:47;;;;;;;51.63;18.50;;;;;;;;;;4989225;28;20023;-58
2024/01/18 02:18:12;;;;;;;54.45;19.67;;;;;;;;;;4988124;28;20425;-57
2024/01/18 02:20:37;;;;;;;60.17;20.47;;;;;;;;;;4990767;28;20120;-58
2024/01/18 02:23:03;;;;;;;59.97;19.55;;;;;;;;;;4990458;28;20145;-58
2024/01/18 02:25:28;;;;;;;56.08;19.85;;;;;;;;;;4990347;28;20046;-58
2024/01/18 02:27:55;;;;;;;51.20;18.43;;;;;;;;;;4986986;28;20038;-56
2024/01/18 02:30:20;;;;;;;61.05;21.33;;;;;;;;;;4989833;28;20104;-59
2024/01/18 02:32:45;;;;;;;47.55;18.00;;;;;;;;;;4987834;28;20030;-57
2024/01/18 02:35:10;;;;;;;63.37;19.60;;;;;;;;;;4991011;28;20025;-57
2024/01/18 02:37:35;;;;;;;54.92;18.40;;;;;;;;;;4990824;28;20027;-57
2024/01/18 02:40:01;;;;;;;52.30;18.93;;;;;;;;;;4988684;28;20486;-57
2024/01/18 02:42:26;;;;;;;68.70;20.60;;;;;;;;;;4989480;28;20041;-57
2024/01/18 02:44:54;;;;;;;66.53;20.53;;;;;;;;;;4990618;28;20461;-57
2024/01/18 02:47:19;;;;;;;47.47;17.40;;;;;;;;;;4994164;28;20058;-57
2024/01/18 02:49:44;;;;;;;48.80;18.58;;;;;;;;;;4991989;28;20058;-57
2024/01/18 02:52:09;;;;;;;49.77;18.33;;;;;;;;;;4994827;28;20371;-58
2024/01/18 02:54:34;;;;;;;53.77;18.53;;;;;;;;;;4993925;28;20109;-57
2024/01/18 02:56:59;;;;;;;57.90;19.38;;;;;;;;;;4995144;28;20026;-57
2024/01/18 02:59:24;;;;;;;55.13;18.20;;;;;;;;;;4994444;28;20092;-58
2024/01/18 03:01:50;;;;;;;48.22;17.45;;;;;;;;;;4994942;28;20049;-58
2024/01/18 03:04:15;;;;;;;55.80;19.40;;;;;;;;;;4994274;28;20514;-59
2024/01/18 03:06:40;;;;;;;64.15;19.35;;;;;;;;;;4994840;28;20023;-60
2024/01/18 03:09:05;;;;;;;51.97;17.70;;;;;;;;;;4993593;28;20030;-57
2024/01/18 03:11:30;;;;;;;49.63;17.98;;;;;;;;;;4993148;28;20030;-58
2024/01/18 03:13:55;;;;;;;41.57;16.87;;;;;;;;;;4994510;28;20088;-57
2024/01/18 03:16:20;;;;;;;45.30;17.63;;;;;;;;;;4994377;28;20029;-59
2024/01/18 03:18:46;;;;;;;44.70;16.50;;;;;;;;;;4994815;28;20030;-57
2024/01/18 03:21:11;;;;;;;51.03;17.25;;;;;;;;;;4994228;28;20050;-58
2024/01/18 03:23:37;;;;;;;43.13;16.23;;;;;;;;;;4991365;28;20028;-57
2024/01/18 03:26:02;;;;;;;51.58;17.92;;;;;;;;;;4985889;28;20450;-56
2024/01/18 03:28:27;;;;;;;37.40;14.73;;;;;;;;;;4994763;28;20027;-57
2024/01/18 03:30:52;;;;;;;46.60;16.17;;;;;;;;;;4994368;28;20488;-57
2024/01/18 03:33:17;;;;;;;51.30;16.73;;;;;;;;;;4993926;28;20030;-58
2024/01/18 03:35:42;;;;;;;43.13;16.52;;;;;;;;;;4993957;28;20025;-59
2024/01/18 03:38:08;;;;;;;50.83;17.02;;;;;;;;;;4993497;28;20029;-58
2024/01/18 03:40:33;;;;;;;46.57;15.37;;;;;;;;;;4983264;28;20054;-57
2024/01/18 03:42:58;;;;;;;40.40;14.57;;;;;;;;;;4980729;28;20110;-57
2024/01/18 03:45:23;;;;;;;39.23;14.40;;;;;;;;;;4993708;28;20014;-57
2024/01/18 03:47:48;;;;;;;40.67;14.30;;;;;;;;;;4993874;28;20026;-58
2024/01/18 03:50:13;;;;;;;39.10;13.53;;;;;;;;;;4993889;28;20034;-57
2024/01/18 03:52:39;;;;;;;38.47;13.43;;;;;;;;;;4991930;28;20168;-57
2024/01/18 03:55:05;;;;;;;34.53;13.73;;;;;;;;;;4993566;28;20029;-57
2024/01/18 03:57:30;;;;;;;38.03;13.27;;;;;;;;;;4993526;28;20039;-57
2024/01/18 03:59:55;;;;;;;31.65;12.15;;;;;;;;;;4993539;28;20454;-57
2024/01/18 04:02:20;;;;;;;32.17;12.27;;;;;;;;;;4993810;28;20092;-58
2024/01/18 04:04:45;;;;;;;34.53;12.10;;;;;;;;;;4994117;28;20027;-57
2024/01/18 04:07:10;;;;;;;33.70;12.88;;;;;;;;;;4993920;28;20408;-57
2024/01/18 04:09:36;;;;;;;31.55;11.70;;;;;;;;;;4994798;28;20047;-57
2024/01/18 04:12:01;;;;;;;31.13;11.37;;;;;;;;;;4981515;28;20054;-57
2024/01/18 04:14:26;;;;;;;29.40;12.13;;;;;;;;;;4977714;28;20026;-57
2024/01/18 04:16:51;;;;;;;36.03;11.70;;;;;;;;;;4993813;28;20022;-57
2024/01/18 04:19:17;;;;;;;42.08;14.18;;;;;;;;;;4998913;28;20022;-56
2024/01/18 04:21:42;;;;;;;35.85;13.52;;;;;;;;;;4987692;28;20685;-59
2024/01/18 04:24:09;;;;;;;35.60;12.30;;;;;;;;;;4995680;28;20022;-57
2024/01/18 04:26:34;;;;;;;36.83;12.90;;;;;;;;;;4999915;28;20026;-57
2024/01/18 04:29:00;;;;;;;41.07;14.07;;;;;;;;;;4998998;28;20065;-59
2024/01/18 04:31:25;;;;;;;35.80;12.85;;;;;;;;;;4995206;28;20070;-59
2024/01/18 04:33:50;;;;;;;41.63;14.10;;;;;;;;;;4988052;28;20033;-56
2024/01/18 04:36:16;;;;;;;44.58;14.32;;;;;;;;;;4991394;28;20039;-57
2024/01/18 04:38:41;;;;;;;33.58;12.93;;;;;;;;;;4992898;28;20026;-58
2024/01/18 04:41:06;;;;;;;46.42;15.48;;;;;;;;;;4993350;28;20331;-57
2024/01/18 04:43:32;;;;;;;39.53;13.97;;;;;;;;;;4994245;28;20034;-57
2024/01/18 04:45:57;;;;;;;37.10;13.77;;;;;;;;;;4998106;28;20032;-57
2024/01/18 04:48:22;;;;;;;48.73;15.40;;;;;;;;;;4997979;28;20030;-57
2024/01/18 04:50:47;;;;;;;45.05;15.40;;;;;;;;;;4993736;28;20022;-56
2024/01/18 04:53:14;;;;;;;39.67;14.27;;;;;;;;;;4994321;28;20454;-57
2024/01/18 04:55:39;;;;;;;33.13;12.80;;;;;;;;;;4993050;28;20026;-57
2024/01/18 04:58:04;;;;;;;45.47;15.35;;;;;;;;;;4989820;28;20034;-57
2024/01/18 05:00:29;;;;;;;37.93;14.10;;;;;;;;;;4992976;28;20038;-58
2024/01/18 05:02:55;;;;;;;37.30;13.57;;;;;;;;;;4978685;28;20057;-56
2024/01/18 05:05:20;;;;;;;39.90;14.40;;;;;;;;;;4972854;28;20018;-57
2024/01/18 05:07:46;;;;;;;37.03;14.77;;;;;;;;;;4974870;28;20074;-56
2024/01/18 05:10:11;;;;;;;33.28;13.40;;;;;;;;;;4992263;28;20030;-57
2024/01/18 05:12:37;;;;;;;35.43;14.13;;;;;;;;;;4990729;28;20026;-57
2024/01/18 05:15:02;;;;;;;37.80;13.80;;;;;;;;;;4986259;28;20073;-57
2024/01/18 05:17:34;;;;;;;41.30;14.48;;;;;;;;;;4991915;28;20034;-56
2024/01/18 05:20:00;;;;;;;38.65;14.98;;;;;;;;;;4991988;28;20026;-59
2024/01/18 05:22:25;;;;;;;46.95;15.27;;;;;;;;;;4985333;28;20525;-58
2024/01/18 05:24:51;;;;;;;47.13;16.48;;;;;;;;;;4990276;28;20023;-58
2024/01/18 05:27:16;;;;;;;35.10;12.83;;;;;;;;;;4988137;28;20105;-58
2024/01/18 05:29:41;;;;;;;42.53;16.35;;;;;;;;;;4998552;28;20062;-57
2024/01/18 05:32:06;;;;;;;36.85;14.45;;;;;;;;;;4993194;28;20033;-57
2024/01/18 05:34:32;;;;;;;33.57;13.10;;;;;;;;;;4987368;28;20089;-57
2024/01/18 05:36:57;;;;;;;42.25;15.65;;;;;;;;;;4986911;28;20019;-57
2024/01/18 05:39:22;;;;;;;37.88;14.13;;;;;;;;;;4982806;28;20046;-58
2024/01/18 05:41:47;;;;;;;37.88;14.23;;;;;;;;;;4986797;28;20454;-59
2024/01/18 05:44:12;;;;;;;27.27;11.02;;;;;;;;;;4987754;28;20044;-57
2024/01/18 05:46:37;;;;;;;30.30;12.77;;;;;;;;;;4987450;28;20030;-59
2024/01/18 05:49:03;;;;;;;28.00;11.55;;;;;;;;;;4988090;28;20038;-57
2024/01/18 05:51:29;;;;;;;27.83;11.68;;;;;;;;;;4990342;28;20080;-56
2024/01/18 05:53:55;;;;;;;28.55;10.98;;;;;;;;;;4990326;28;20031;-57
2024/01/18 05:56:20;;;;;;;27.75;10.98;;;;;;;;;;4985696;28;20470;-57
2024/01/18 05:58:45;;;;;;;27.25;11.35;;;;;;;;;;4988494;28;20018;-58
2024/01/18 06:01:10;;;;;;;28.98;11.57;;;;;;;;;;4987517;28;20533;-58
2024/01/18 06:03:35;;;;;;;32.63;12.15;;;;;;;;;;4996046;28;20049;-56
2024/01/18 06:06:01;;;;;;;33.67;13.27;;;;;;;;;;4988641;28;20031;-57
2024/01/18 06:08:27;;;;;;;30.10;12.02;;;;;;;;;;4990135;28;20025;-57
2024/01/18 06:10:52;;;;;;;30.63;12.20;;;;;;;;;;4987478;28;20042;-57
2024/01/18 06:13:17;;;;;;;26.60;11.15;;;;;;;;;;4986257;28;20022;-56
2024/01/18 06:15:43;;;;;;;32.45;13.55;;;;;;;;;;4989646;28;20057;-56
2024/01/18 06:18:08;;;;;;;38.30;15.17;;;;;;;;;;4982986;28;20395;-59
2024/01/18 06:20:33;;;;;;;41.05;14.75;;;;;;;;;;4991404;28;20062;-56
2024/01/18 06:22:58;;;;;;;35.38;14.55;;;;;;;;;;4990519;28;20031;-56
2024/01/18 06:25:24;;;;;;;34.35;13.02;;;;;;;;;;4991676;28;20050;-57
2024/01/18 06:27:49;;;;;;;35.35;13.38;;;;;;;;;;4992180;28;20026;-56
2024/01/18 06:30:14;;;;;;;31.20;12.30;;;;;;;;;;4991870;28;20097;-58
2024/01/18 06:32:39;;;;;;;29.80;11.82;;;;;;;;;;4990707;28;20019;-60
2024/01/18 06:35:05;;;;;;;32.53;12.75;;;;;;;;;;4990672;28;20030;-57
2024/01/18 06:37:30;;;;;;;38.43;14.33;;;;;;;;;;4992333;28;20111;-57
2024/01/18 06:39:55;;;;;;;51.13;14.18;;;;;;;;;;4989694;28;20456;-56
2024/01/18 06:42:20;;;;;;;34.78;14.18;;;;;;;;;;4991677;28;20041;-56
2024/01/18 06:44:46;;;;;;;40.47;15.77;;;;;;;;;;4985669;28;20446;-58
2024/01/18 06:47:11;;;;;;;32.05;12.85;;;;;;;;;;4990347;28;20026;-58
2024/01/18 06:49:36;;;;;;;34.25;13.77;;;;;;;;;;4991681;28;20027;-57
2024/01/18 06:52:02;;;;;;;33.30;13.73;;;;;;;;;;4993382;28;20057;-56
2024/01/18 06:54:27;;;;;;;32.50;13.98;;;;;;;;;;4994428;28;20022;-57
2024/01/18 06:56:52;;;;;;;43.60;15.48;;;;;;;;;;4991110;28;20103;-57
2024/01/18 06:59:18;;;;;;;34.25;13.00;;;;;;;;;;4987063;28;20105;-57
2024/01/18 07:01:43;;;;;;;31.90;12.85;;;;;;;;;;4991283;28;20034;-56
2024/01/18 07:04:08;;;;;;;35.67;13.93;;;;;;;;;;4991116;28;20030;-56
2024/01/18 07:06:33;;;;;;;31.23;12.63;;;;;;;;;;4988688;28;20038;-57
2024/01/18 07:08:58;;;;;;;30.70;12.35;;;;;;;;;;4991279;28;20032;-57
2024/01/18 07:11:23;;;;;;;30.27;11.70;;;;;;;;;;4986922;28;20018;-56
2024/01/18 07:13:48;;;;;;;33.55;12.80;;;;;;;;;;4986550;28;20026;-56
2024/01/18 07:16:14;;;;;;;30.17;12.43;;;;;;;;;;4987438;28;20030;-57
2024/01/18 07:18:39;;;;;;;28.97;10.63;;;;;;;;;;4988947;28;20015;-57
2024/01/18 07:21:04;;;;;;;29.67;11.95;;;;;;;;;;4989958;28;20026;-56
2024/01/18 07:23:29;;;;;;;29.10;11.52;;;;;;;;;;4992772;28;20080;-57
2024/01/18 07:25:55;;;;;;;25.35;10.80;;;;;;;;;;4996850;28;20121;-57
2024/01/18 07:28:20;;;;;;;33.40;11.73;;;;;;;;;;4995972;28;20530;-59
2024/01/18 07:30:46;;;;;;;28.30;12.57;;;;;;;;;;4988867;28;20030;-57
2024/01/18 07:33:11;;;;;;;30.73;11.30;;;;;;;;;;4992867;28;20026;-57
2024/01/18 07:35:36;;;;;;;31.85;12.90;;;;;;;;;;5003325;28;20045;-56
2024/01/18 07:38:01;;;;;;;28.17;12.50;;;;;;;;;;4998600;28;20525;-56
2024/01/18 07:40:26;;;;;;;32.60;12.43;;;;;;;;;;4991624;28;20029;-57
2024/01/18 07:42:51;;;;;;;28.33;12.52;;;;;;;;;;4990258;28;20033;-56
2024/01/18 07:45:16;;;;;;;28.08;13.05;;;;;;;;;;4995554;28;20019;-57
2024/01/18 07:47:42;;;;;;;30.85;13.32;;;;;;;;;;5004988;28;20510;-56
2024/01/18 07:50:09;;;;;;;31.02;12.60;;;;;;;;;;4999339;28;20060;-56
2024/01/18 07:52:34;;;;;;;27.10;12.15;;;;;;;;;;4985592;28;20037;-58
2024/01/18 07:54:59;;;;;;;29.05;13.60;;;;;;;;;;4980504;28;21753;-57
2024/01/18 07:57:24;;;;;;;38.37;12.73;;;;;;;;;;4987138;28;20036;-57
2024/01/18 07:59:50;;;;;;;27.42;12.00;;;;;;;;;;4990913;28;20018;-56
2024/01/18 08:02:15;;;;;;;28.57;11.87;;;;;;;;;;4993752;28;20044;-57
2024/01/18 08:04:40;;;;;;;28.08;12.27;;;;;;;;;;4993371;28;20097;-58
2024/01/18 08:07:05;;;;;;;32.57;12.90;;;;;;;;;;4992605;28;20071;-56
2024/01/18 08:09:30;;;;;;;27.42;12.70;;;;;;;;;;4989863;28;20061;-58
2024/01/18 08:11:56;;;;;;;33.45;14.02;;;;;;;;;;4992940;28;20026;-58
2024/01/18 08:14:21;;;;;;;29.50;13.35;;;;;;;;;;4994260;28;20024;-56
2024/01/18 08:16:46;;;;;;;31.77;13.47;;;;;;;;;;4993977;28;20101;-56
2024/01/18 08:19:12;;;;;;;35.15;15.73;;;;;;;;;;4994463;28;20430;-58
2024/01/18 08:21:43;;;;;;;34.63;14.37;;;;;;;;;;4993487;28;20038;-58
2024/01/18 08:24:09;;;;;;;34.20;13.73;;;;;;;;;;4992755;28;20026;-56
2024/01/18 08:26:34;;;;;;;35.35;15.48;;;;;;;;;;4994863;28;20037;-58
2024/01/18 08:28:59;;;;;;;35.63;13.90;;;;;;;;;;4991696;28;20027;-58
2024/01/18 08:31:24;;;;;;;28.98;13.00;;;;;;;;;;4993687;28;20510;-57
2024/01/18 08:33:50;;;;;;;35.50;15.53;;;;;;;;;;4994216;28;20084;-58
2024/01/18 08:36:15;;;;;;;29.75;12.70;;;;;;;;;;4993721;28;20015;-56
2024/01/18 08:38:40;;;;;;;35.63;15.00;;;;;;;;;;4992580;28;20501;-56
2024/01/18 08:41:05;;;;;;;37.10;15.13;;;;;;;;;;4992873;28;20085;-55
2024/01/18 08:43:31;;;;;;;35.13;14.30;;;;;;;;;;4992304;28;20482;-56
2024/01/18 08:45:56;;;;;;;30.20;13.90;;;;;;;;;;4993200;28;20515;-56
2024/01/18 08:48:21;;;;;;;32.77;14.43;;;;;;;;;;4993140;28;20376;-56
2024/01/18 08:50:47;;;;;;;32.30;13.83;;;;;;;;;;4993412;28;20457;-56
2024/01/18 08:53:12;;;;;;;32.33;14.53;;;;;;;;;;4992677;28;20036;-57
2024/01/18 08:55:38;;;;;;;34.73;14.97;;;;;;;;;;4992684;28;20452;-57
2024/01/18 08:58:04;;;;;;;34.63;14.77;;;;;;;;;;4986666;28;20018;-57
2024/01/18 09:00:29;;;;;;;34.92;15.13;;;;;;;;;;4991422;28;20045;-57
2024/01/18 09:02:54;;;;;;;36.75;16.00;;;;;;;;;;4975197;28;20030;-57
2024/01/18 09:05:20;;;;;;;31.50;13.63;;;;;;;;;;4979806;28;20046;-57
2024/01/18 09:07:45;;;;;;;37.30;15.77;;;;;;;;;;4993163;28;20222;-56
2024/01/18 09:10:11;;;;;;;36.50;15.02;;;;;;;;;;4993307;28;20291;-57
2024/01/18 09:12:36;;;;;;;37.97;15.75;;;;;;;;;;4991357;28;20158;-57
2024/01/18 09:15:02;;;;;;;36.63;15.77;;;;;;;;;;4992396;28;20029;-57
2024/01/18 09:17:28;;;;;;;40.10;17.05;;;;;;;;;;4992218;28;20080;-56
2024/01/18 09:19:53;;;;;;;39.27;16.47;;;;;;;;;;4993050;28;20379;-56
2024/01/18 09:22:18;;;;;;;38.03;16.08;;;;;;;;;;4992728;28;20545;-57
2024/01/18 09:24:43;;;;;;;35.80;15.30;;;;;;;;;;4992803;28;20033;-58
2024/01/18 09:27:09;;;;;;;38.53;15.73;;;;;;;;;;4992620;28;20068;-57
2024/01/18 09:29:35;;;;;;;36.50;15.13;;;;;;;;;;4988433;28;20038;-57
2024/01/18 09:32:01;;;;;;;36.50;15.55;;;;;;;;;;4987001;28;20026;-57
2024/01/18 09:34:26;;;;;;;43.33;16.73;;;;;;;;;;4992206;28;20027;-56
2024/01/18 09:36:51;;;;;;;39.78;16.15;;;;;;;;;;4992321;28;20029;-57
2024/01/18 09:39:16;;;;;;;39.53;17.17;;;;;;;;;;4985242;28;20445;-56
2024/01/18 09:41:42;;;;;;;37.57;15.77;;;;;;;;;;4991662;28;20510;-56
2024/01/18 09:44:11;;;;;;;45.00;17.17;;;;;;;;;;4992262;28;20033;-57
2024/01/18 09:46:36;;;;;;;43.92;16.50;;;;;;;;;;4992370;28;20112;-56
2024/01/18 09:49:01;;;;;;;41.42;16.63;;;;;;;;;;4992463;28;20498;-58
2024/01/18 09:51:27;;;;;;;39.23;16.20;;;;;;;;;;4992205;28;20029;-57
2024/01/18 09:53:55;;;;;;;37.00;15.67;;;;;;;;;;4990679;28;20234;-58
2024/01/18 09:56:22;;;;;;;38.65;15.55;;;;;;;;;;4991622;28;20026;-57
2024/01/18 09:58:47;;;;;;;36.17;14.95;;;;;;;;;;4992063;28;20479;-57
2024/01/18 10:01:17;;;;;;;36.73;15.47;;;;;;;;;;4991565;28;20034;-57
2024/01/18 10:03:42;;;;;;;41.30;16.05;;;;;;;;;;4991314;28;20041;-56
2024/01/18 10:06:07;;;;;;;38.25;15.13;;;;;;;;;;4991779;28;20486;-57
2024/01/18 10:08:33;;;;;;;38.40;15.33;;;;;;;;;;4985762;28;20085;-58
2024/01/18 10:10:58;;;;;;;42.63;16.60;;;;;;;;;;4991424;28;20090;-56
2024/01/18 10:13:23;;;;;;;41.78;15.77;;;;;;;;;;4991681;28;20030;-57
2024/01/18 10:15:48;;;;;;;39.03;15.20;;;;;;;;;;4991867;28;20030;-57
2024/01/18 10:18:13;;;;;;;46.65;17.42;;;;;;;;;;4992877;28;20457;-57
2024/01/18 10:20:39;;;;;;;37.90;14.88;;;;;;;;;;4992813;28;20033;-56
2024/01/18 10:23:04;;;;;;;37.88;14.93;;;;;;;;;;4992979;28;20028;-57
2024/01/18 10:25:30;;;;;;;41.77;16.17;;;;;;;;;;4993392;28;20069;-57
2024/01/18 10:27:56;;;;;;;38.92;16.38;;;;;;;;;;4994619;28;20872;-57
2024/01/18 10:30:22;;;;;;;39.42;15.32;;;;;;;;;;5000362;28;20110;-57
2024/01/18 10:32:47;;;;;;;44.10;16.17;;;;;;;;;;4998450;28;20029;-62
2024/01/18 10:35:20;;;;;;;40.72;16.13;;;;;;;;;;4994521;28;20046;-56
2024/01/18 10:37:46;;;;;;;43.38;16.55;;;;;;;;;;4983031;28;20037;-57
2024/01/18 10:40:16;;;;;;;42.17;17.00;;;;;;;;;;4989921;28;20406;-57
2024/01/18 10:42:41;;;;;;;43.53;16.65;;;;;;;;;;4989782;28;20026;-57
2024/01/18 10:45:07;;;;;;;42.13;16.55;;;;;;;;;;4990599;28;20207;-56
2024/01/18 10:47:32;;;;;;;40.80;15.68;;;;;;;;;;4992100;28;20029;-58
2024/01/18 10:49:59;;;;;;;45.17;18.63;;;;;;;;;;4991489;28;20065;-57
2024/01/18 10:52:25;;;;;;;67.75;20.15;;;;;;;;;;4988174;28;20030;-57
2024/01/18 10:54:51;;;;;;;44.70;18.75;;;;;;;;;;4991915;28;20618;-56
2024/01/18 10:57:16;;;;;;;45.58;16.52;;;;;;;;;;4989982;28;20061;-56
2024/01/18 10:59:42;;;;;;;39.47;14.93;;;;;;;;;;4991242;28;20064;-56
2024/01/18 11:02:07;;;;;;;35.63;14.48;;;;;;;;;;4994738;28;20037;-57
2024/01/18 11:04:33;;;;;;;33.87;13.43;;;;;;;;;;4997920;28;20023;-57
2024/01/18 11:06:58;;;;;;;37.08;13.82;;;;;;;;;;4998956;28;20053;-58
2024/01/18 11:09:30;;;;;;;30.85;12.95;;;;;;;;;;5001844;28;20034;-56
2024/01/18 11:11:56;;;;;;;33.50;13.57;;;;;;;;;;5002249;28;20026;-56
2024/01/18 11:14:21;;;;;;;38.35;14.93;;;;;;;;;;5002599;28;20022;-56
2024/01/18 11:16:47;;;;;;;39.13;15.52;;;;;;;;;;4999505;28;20420;-58
2024/01/18 11:19:12;;;;;;;39.40;15.38;;;;;;;;;;4995433;28;20548;-58
2024/01/18 11:21:38;;;;;;;45.33;16.50;;;;;;;;;;4992967;28;20427;-57
2024/01/18 11:24:07;;;;;;;35.28;14.50;;;;;;;;;;4995386;28;20072;-57
2024/01/18 11:26:33;;;;;;;40.25;15.93;;;;;;;;;;4986224;28;20082;-57
2024/01/18 11:29:18;;;;;;;38.53;15.55;;;;;;;;;;4976243;28;20022;-59
2024/01/18 11:31:52;;;;;;;37.67;16.08;;;;;;;;;;4976707;28;20026;-57
2024/01/18 11:34:38;;;;;;;42.80;16.83;;;;;;;;;;4983493;28;20398;-58
2024/01/18 11:37:12;;;;;;;40.15;16.05;;;;;;;;;;4995801;28;20029;-57
2024/01/18 11:39:59;;;;;;;41.95;17.30;;;;;;;;;;4996619;28;20015;-58
2024/01/18 11:42:26;;;;;;;34.28;12.32;;;;;;;;;;4996605;28;20026;-58
2024/01/18 11:45:01;;;;;;;32.50;14.13;;;;;;;;;;4995189;28;20390;-57
2024/01/18 11:47:30;;;;;;;40.33;15.50;;;;;;;;;;4993719;28;20019;-58
2024/01/18 11:49:55;;;;;;;47.33;17.17;;;;;;;;;;4990456;28;20037;-57
2024/01/18 11:52:23;;;;;;;34.50;13.73;;;;;;;;;;4994604;28;20022;-58
2024/01/18 11:54:54;;;;;;;38.17;13.95;;;;;;;;;;4992795;28;20029;-58
2024/01/18 11:57:20;;;;;;;30.15;11.85;;;;;;;;;;4988240;28;20042;-60
2024/01/18 11:59:48;;;;;;;34.27;12.60;;;;;;;;;;4994068;28;20519;-58
2024/01/18 12:02:13;;;;;;;32.88;13.27;;;;;;;;;;4994560;28;20462;-58
2024/01/18 12:04:39;;;;;;;37.63;13.63;;;;;;;;;;4993679;28;20080;-58
2024/01/18 12:07:05;;;;;;;30.45;11.82;;;;;;;;;;4994324;28;20058;-57
2024/01/18 12:09:30;;;;;;;27.58;11.23;;;;;;;;;;4991522;28;20360;-57
2024/01/18 12:11:59;;;;;;;29.13;10.85;;;;;;;;;;4993379;28;20025;-56
2024/01/18 12:14:24;;;;;;;30.65;10.60;;;;;;;;;;4993286;28;20111;-56
2024/01/18 12:16:49;;;;;;;28.17;11.38;;;;;;;;;;4993804;28;20449;-57
2024/01/18 12:19:33;;;;;;;22.33;9.00;;;;;;;;;;4991948;28;20021;-57
2024/01/18 12:22:01;;;;;;;19.85;7.60;;;;;;;;;;4987635;28;20010;-57
2024/01/18 12:24:27;;;;;;;20.60;7.95;;;;;;;;;;4993649;28;20025;-56
2024/01/18 12:26:52;;;;;;;25.80;9.10;;;;;;;;;;4994108;28;20034;-58
2024/01/18 12:29:18;;;;;;;25.25;10.32;;;;;;;;;;4991461;28;20411;-57
2024/01/18 12:31:46;;;;;;;25.48;10.45;;;;;;;;;;4978722;28;20554;-56
2024/01/18 12:34:12;;;;;;;30.35;11.25;;;;;;;;;;4973026;28;20018;-57
2024/01/18 12:36:37;;;;;;;30.93;11.63;;;;;;;;;;4985733;28;20149;-57
2024/01/18 12:39:02;;;;;;;25.80;11.52;;;;;;;;;;4992880;28;20429;-56
2024/01/18 12:41:28;;;;;;;33.30;12.00;;;;;;;;;;4992159;28;20032;-58
2024/01/18 12:43:53;;;;;;;25.60;10.65;;;;;;;;;;4984743;28;20045;-57
2024/01/18 12:46:18;;;;;;;25.07;9.83;;;;;;;;;;4989017;28;20394;-58
2024/01/18 12:48:43;;;;;;;23.88;8.88;;;;;;;;;;4993630;28;20145;-57
2024/01/18 12:51:08;;;;;;;22.95;9.13;;;;;;;;;;4992309;28;20513;-57
2024/01/18 12:53:34;;;;;;;23.27;9.63;;;;;;;;;;4993460;28;20019;-56
2024/01/18 12:55:59;;;;;;;22.67;8.73;;;;;;;;;;4992862;28;20027;-57
2024/01/18 12:58:24;;;;;;;27.92;9.98;;;;;;;;;;4991190;28;20069;-56
2024/01/18 13:00:50;;;;;;;28.20;10.50;;;;;;;;;;4992598;28;20088;-57
2024/01/18 13:03:16;;;;;;;30.17;10.55;;;;;;;;;;4991708;28;20033;-56
2024/01/18 13:05:42;;;;;;;26.73;11.32;;;;;;;;;;4992991;28;20415;-58
2024/01/18 13:08:08;;;;;;;26.45;10.80;;;;;;;;;;4993062;28;20546;-58
2024/01/18 13:10:34;;;;;;;28.83;10.95;;;;;;;;;;4990584;28;20027;-56
2024/01/18 13:13:00;;;;;;;28.92;11.93;;;;;;;;;;4988582;28;20474;-57
2024/01/18 13:15:25;;;;;;;30.67;11.43;;;;;;;;;;4991516;28;20037;-57
2024/01/18 13:17:50;;;;;;;34.17;12.88;;;;;;;;;;4992794;28;20030;-57
2024/01/18 13:20:15;;;;;;;32.08;13.35;;;;;;;;;;4992707;28;20066;-58
2024/01/18 13:22:40;;;;;;;37.55;13.63;;;;;;;;;;4992549;28;20463;-58
2024/01/18 13:25:07;;;;;;;35.97;13.35;;;;;;;;;;4992912;28;20037;-56
2024/01/18 13:27:33;;;;;;;30.67;12.43;;;;;;;;;;4986809;28;20027;-57
2024/01/18 13:29:59;;;;;;;36.13;14.63;;;;;;;;;;4992614;28;20041;-57
2024/01/18 13:32:24;;;;;;;39.85;15.85;;;;;;;;;;4994119;28;20014;-58
2024/01/18 13:34:49;;;;;;;44.73;15.33;;;;;;;;;;4995826;28;20028;-58
2024/01/18 13:37:14;;;;;;;30.73;12.40;;;;;;;;;;4993501;28;20018;-57
2024/01/18 13:39:39;;;;;;;33.07;13.33;;;;;;;;;;4993294;28;20133;-56
2024/01/18 13:42:04;;;;;;;35.07;14.87;;;;;;;;;;4992834;28;20029;-57
2024/01/18 13:44:30;;;;;;;35.22;13.05;;;;;;;;;;4991486;28;20022;-57
2024/01/18 13:46:55;;;;;;;33.67;13.13;;;;;;;;;;4991484;28;20034;-57
2024/01/18 13:49:20;;;;;;;36.15;14.90;;;;;;;;;;4984739;28;20058;-56
2024/01/18 13:51:45;;;;;;;38.73;14.77;;;;;;;;;;4986201;28;20015;-58
2024/01/18 13:54:10;;;;;;;33.07;13.93;;;;;;;;;;4990511;28;20018;-58
2024/01/18 13:56:36;;;;;;;32.88;13.75;;;;;;;;;;4993232;28;20068;-59
2024/01/18 13:59:01;;;;;;;32.92;13.77;;;;;;;;;;4993354;28;20113;-58
2024/01/18 14:01:26;;;;;;;37.10;13.80;;;;;;;;;;4992757;28;20501;-56
2024/01/18 14:03:52;;;;;;;35.53;14.57;;;;;;;;;;4991940;28;20030;-56
2024/01/18 14:06:19;;;;;;;33.55;14.90;;;;;;;;;;4991860;28;20430;-57
2024/01/18 14:08:45;;;;;;;39.97;16.75;;;;;;;;;;4992244;28;20390;-58